Time;durP1;ratioP1;P1;durP2;ratioP2;P2;SDS_P1;SDS_P2;PMS_P1;PMS_P2;Temp;Humidity;BMP_temperature;BMP_pressure;BME280_temperature;BME280_humidity;BME280_pressure;Samples;Min_cycle;Max_cycle;Signal;HPM_P1;HPM_P2
2024/01/07 00:02:06;;;;;;;20.73;9.75;;;;;;;;;;5021315;28;20498;-76
2024/01/07 00:04:34;;;;;;;16.88;8.77;;;;;;;;;;5017861;28;20080;-77
2024/01/07 00:06:59;;;;;;;16.25;8.90;;;;;;;;;;5013715;28;20112;-77
2024/01/07 00:09:24;;;;;;;16.02;9.00;;;;;;;;;;5018891;28;20550;-77
2024/01/07 00:11:50;;;;;;;17.63;10.25;;;;;;;;;;5019234;28;20029;-78
2024/01/07 00:14:16;;;;;;;21.83;9.98;;;;;;;;;;5020859;28;20030;-77
2024/01/07 00:16:41;;;;;;;19.27;10.63;;;;;;;;;;5023047;28;20034;-77
2024/01/07 00:19:07;;;;;;;17.08;10.05;;;;;;;;;;5014022;28;20025;-77
2024/01/07 00:21:32;;;;;;;18.13;10.68;;;;;;;;;;5005966;28;20030;-78
2024/01/07 00:23:57;;;;;;;17.42;9.63;;;;;;;;;;4999365;28;20026;-77
2024/01/07 00:26:22;;;;;;;21.15;11.48;;;;;;;;;;5001504;28;20034;-77
2024/01/07 00:28:47;;;;;;;15.25;8.70;;;;;;;;;;5018506;28;20120;-77
2024/01/07 00:31:13;;;;;;;17.08;9.88;;;;;;;;;;5022460;28;20105;-77
2024/01/07 00:33:38;;;;;;;17.83;9.68;;;;;;;;;;4999089;28;20060;-77
2024/01/07 00:36:03;;;;;;;15.68;8.73;;;;;;;;;;5016580;28;20510;-77
2024/01/07 00:38:29;;;;;;;19.40;9.65;;;;;;;;;;5017714;28;20084;-78
2024/01/07 00:40:54;;;;;;;18.52;9.57;;;;;;;;;;5002924;28;20505;-77
2024/01/07 00:43:19;;;;;;;15.95;9.25;;;;;;;;;;5021846;28;20626;-78
2024/01/07 00:45:44;;;;;;;15.30;8.23;;;;;;;;;;5018981;28;20080;-78
2024/01/07 00:48:10;;;;;;;18.40;8.77;;;;;;;;;;5016192;28;20088;-77
2024/01/07 00:50:35;;;;;;;19.38;9.73;;;;;;;;;;5018362;28;20049;-78
2024/01/07 00:53:00;;;;;;;17.92;9.95;;;;;;;;;;5018404;28;20026;-77
2024/01/07 00:55:25;;;;;;;18.92;10.15;;;;;;;;;;5020824;28;20033;-77
2024/01/07 00:57:51;;;;;;;18.17;9.68;;;;;;;;;;5020452;28;20034;-77
2024/01/07 01:00:16;;;;;;;19.05;9.15;;;;;;;;;;5005137;28;20033;-77
2024/01/07 01:02:42;;;;;;;20.40;10.00;;;;;;;;;;4999130;28;20045;-78
2024/01/07 01:05:07;;;;;;;19.30;9.82;;;;;;;;;;5014758;28;20028;-77
2024/01/07 01:07:32;;;;;;;18.30;9.40;;;;;;;;;;5002099;28;20044;-78
2024/01/07 01:09:58;;;;;;;19.33;10.27;;;;;;;;;;5001063;28;20037;-77
2024/01/07 01:12:23;;;;;;;21.38;9.68;;;;;;;;;;4996441;28;20148;-77
2024/01/07 01:14:48;;;;;;;17.35;9.60;;;;;;;;;;5003310;28;20474;-77
2024/01/07 01:17:13;;;;;;;19.38;8.63;;;;;;;;;;5013422;28;20026;-77
2024/01/07 01:19:39;;;;;;;17.40;8.50;;;;;;;;;;5000845;28;20044;-77
2024/01/07 01:22:04;;;;;;;17.95;8.68;;;;;;;;;;5015884;28;20036;-78
2024/01/07 01:24:29;;;;;;;17.23;9.65;;;;;;;;;;4988747;28;20096;-77
2024/01/07 01:26:54;;;;;;;16.30;8.50;;;;;;;;;;5019926;28;20033;-77
2024/01/07 01:29:20;;;;;;;16.83;9.35;;;;;;;;;;5017922;28;20049;-77
2024/01/07 01:31:45;;;;;;;16.23;8.15;;;;;;;;;;5001689;28;20044;-77
2024/01/07 01:34:10;;;;;;;15.88;8.27;;;;;;;;;;5014800;28;20026;-76
2024/01/07 01:36:35;;;;;;;19.95;9.55;;;;;;;;;;5002605;28;20037;-78
2024/01/07 01:39:00;;;;;;;16.75;7.25;;;;;;;;;;5017428;28;20025;-77
2024/01/07 01:41:26;;;;;;;15.75;8.73;;;;;;;;;;5015980;28;20038;-77
2024/01/07 01:43:51;;;;;;;16.65;8.40;;;;;;;;;;5001083;28;20030;-77
2024/01/07 01:46:16;;;;;;;15.75;7.40;;;;;;;;;;5013736;28;20025;-77
2024/01/07 01:48:42;;;;;;;18.65;7.78;;;;;;;;;;5000385;28;20532;-77
2024/01/07 01:51:07;;;;;;;17.92;8.25;;;;;;;;;;5015184;28;20490;-76
2024/01/07 01:53:33;;;;;;;16.60;7.28;;;;;;;;;;5020029;28;20517;-77
2024/01/07 01:56:00;;;;;;;17.13;7.65;;;;;;;;;;4978644;28;20030;-77
2024/01/07 01:58:26;;;;;;;18.27;8.75;;;;;;;;;;5012236;28;20036;-77
2024/01/07 02:00:51;;;;;;;17.15;7.80;;;;;;;;;;5000192;28;20109;-77
2024/01/07 02:03:18;;;;;;;17.33;7.45;;;;;;;;;;4996558;28;20544;-76
2024/01/07 02:05:43;;;;;;;18.08;7.82;;;;;;;;;;5002627;28;20661;-77
2024/01/07 02:08:08;;;;;;;15.02;7.30;;;;;;;;;;5001838;28;20041;-77
2024/01/07 02:10:36;;;;;;;20.20;7.78;;;;;;;;;;5015924;28;20069;-76
2024/01/07 02:13:01;;;;;;;14.63;8.10;;;;;;;;;;5014754;28;20032;-76
2024/01/07 02:15:27;;;;;;;15.05;7.82;;;;;;;;;;5017315;28;20018;-76
2024/01/07 02:17:52;;;;;;;15.27;7.60;;;;;;;;;;4999661;28;20476;-76
2024/01/07 02:20:17;;;;;;;15.00;7.03;;;;;;;;;;5019251;28;20034;-76
2024/01/07 02:22:43;;;;;;;16.10;7.35;;;;;;;;;;5016517;28;20034;-76
2024/01/07 02:25:08;;;;;;;14.73;8.63;;;;;;;;;;5011581;28;20040;-77
2024/01/07 02:27:33;;;;;;;15.88;7.85;;;;;;;;;;5015530;28;20029;-76
2024/01/07 02:29:59;;;;;;;13.70;7.60;;;;;;;;;;5016898;28;20029;-76
2024/01/07 02:32:24;;;;;;;14.70;7.13;;;;;;;;;;5018854;28;20034;-77
2024/01/07 02:34:49;;;;;;;16.65;7.82;;;;;;;;;;5018752;28;20036;-77
2024/01/07 02:37:14;;;;;;;16.38;7.72;;;;;;;;;;5015990;28;20029;-76
2024/01/07 02:39:40;;;;;;;14.75;7.93;;;;;;;;;;5014697;28;20026;-77
2024/01/07 02:42:05;;;;;;;12.95;6.72;;;;;;;;;;5014112;28;20028;-76
2024/01/07 02:44:30;;;;;;;16.73;7.60;;;;;;;;;;5017646;28;20563;-76
2024/01/07 02:46:55;;;;;;;13.70;6.20;;;;;;;;;;5017549;28;20084;-76
2024/01/07 02:49:21;;;;;;;16.42;6.97;;;;;;;;;;5006222;28;20029;-78
2024/01/07 02:51:49;;;;;;;17.95;7.53;;;;;;;;;;5021343;28;20045;-77
2024/01/07 02:54:15;;;;;;;14.57;6.20;;;;;;;;;;5018503;28;20025;-78
2024/01/07 02:56:40;;;;;;;14.75;7.13;;;;;;;;;;5023229;28;20021;-78
2024/01/07 02:59:05;;;;;;;15.18;6.45;;;;;;;;;;5023408;28;20479;-78
2024/01/07 03:01:30;;;;;;;13.25;6.55;;;;;;;;;;5023896;28;20032;-78
2024/01/07 03:03:56;;;;;;;13.13;6.20;;;;;;;;;;5024808;28;20034;-78
2024/01/07 03:06:21;;;;;;;13.75;6.53;;;;;;;;;;5018391;28;20037;-78
2024/01/07 03:08:48;;;;;;;14.43;6.00;;;;;;;;;;5003336;28;20124;-77
2024/01/07 03:11:13;;;;;;;12.20;5.85;;;;;;;;;;5010815;28;20026;-76
2024/01/07 03:13:39;;;;;;;13.60;5.72;;;;;;;;;;5007403;28;20079;-78
2024/01/07 03:16:05;;;;;;;12.18;5.78;;;;;;;;;;5005451;28;20051;-76
2024/01/07 03:18:30;;;;;;;10.75;5.15;;;;;;;;;;5024712;28;20036;-77
2024/01/07 03:20:55;;;;;;;13.05;5.93;;;;;;;;;;5019268;28;20033;-76
2024/01/07 03:23:20;;;;;;;10.55;5.32;;;;;;;;;;5018347;28;20025;-77
2024/01/07 03:25:46;;;;;;;11.57;5.28;;;;;;;;;;5023584;28;20116;-77
2024/01/07 03:28:11;;;;;;;12.57;5.30;;;;;;;;;;5026366;28;20025;-78
2024/01/07 03:30:36;;;;;;;11.10;5.45;;;;;;;;;;5024417;28;20033;-79
2024/01/07 03:33:01;;;;;;;11.93;5.20;;;;;;;;;;5015047;28;20065;-77
2024/01/07 03:35:27;;;;;;;13.07;5.68;;;;;;;;;;5019125;28;20056;-77
2024/01/07 03:37:52;;;;;;;12.05;6.00;;;;;;;;;;5003493;28;20026;-77
2024/01/07 03:40:17;;;;;;;11.90;5.35;;;;;;;;;;5023420;28;20022;-77
2024/01/07 03:42:42;;;;;;;13.80;5.85;;;;;;;;;;5023587;28;20026;-77
2024/01/07 03:45:08;;;;;;;13.35;5.55;;;;;;;;;;5024798;28;20410;-77
2024/01/07 03:47:33;;;;;;;11.70;5.28;;;;;;;;;;5021491;28;20108;-77
2024/01/07 03:49:58;;;;;;;12.65;5.00;;;;;;;;;;5019124;28;20049;-77
2024/01/07 03:52:23;;;;;;;10.82;4.93;;;;;;;;;;5004938;28;20037;-77
2024/01/07 03:54:49;;;;;;;11.70;4.63;;;;;;;;;;5022825;28;20057;-77
2024/01/07 03:57:14;;;;;;;11.25;5.28;;;;;;;;;;5024245;28;20036;-77
2024/01/07 03:59:39;;;;;;;9.90;4.88;;;;;;;;;;5026078;28;20037;-77
2024/01/07 04:02:04;;;;;;;10.30;5.32;;;;;;;;;;5014377;28;20041;-77
2024/01/07 04:04:29;;;;;;;14.25;5.25;;;;;;;;;;5016873;28;20030;-77
2024/01/07 04:06:55;;;;;;;9.32;4.35;;;;;;;;;;5001099;28;20044;-77
2024/01/07 04:09:20;;;;;;;12.03;4.70;;;;;;;;;;5019404;28;20053;-77
2024/01/07 04:11:45;;;;;;;11.20;4.80;;;;;;;;;;5021390;28;20114;-77
2024/01/07 04:14:13;;;;;;;10.40;3.75;;;;;;;;;;5016737;28;20034;-76
2024/01/07 04:16:38;;;;;;;9.13;4.18;;;;;;;;;;5016057;28;20065;-77
2024/01/07 04:19:04;;;;;;;10.25;5.10;;;;;;;;;;5018648;28;20052;-77
2024/01/07 04:21:29;;;;;;;9.95;4.38;;;;;;;;;;5000606;28;20130;-75
2024/01/07 04:23:54;;;;;;;7.75;3.85;;;;;;;;;;5022194;28;20038;-77
2024/01/07 04:26:19;;;;;;;10.60;4.55;;;;;;;;;;5021151;28;20030;-76
2024/01/07 04:28:44;;;;;;;9.93;4.75;;;;;;;;;;5000082;28;20037;-77
2024/01/07 04:31:10;;;;;;;10.18;4.10;;;;;;;;;;5015141;28;20386;-77
2024/01/07 04:33:35;;;;;;;8.95;4.35;;;;;;;;;;5017737;28;20080;-77
2024/01/07 04:36:00;;;;;;;9.70;4.45;;;;;;;;;;5001998;28;20034;-77
2024/01/07 04:38:26;;;;;;;11.35;5.03;;;;;;;;;;5020652;28;20022;-76
2024/01/07 04:40:51;;;;;;;10.57;5.10;;;;;;;;;;5004324;28;20029;-75
2024/01/07 04:43:17;;;;;;;7.00;3.70;;;;;;;;;;5013389;28;20486;-77
2024/01/07 04:45:43;;;;;;;11.40;4.78;;;;;;;;;;5012790;28;20034;-76
2024/01/07 04:48:08;;;;;;;10.50;4.43;;;;;;;;;;5001980;28;20025;-77
2024/01/07 04:50:33;;;;;;;10.48;3.85;;;;;;;;;;5018603;28;20038;-77
2024/01/07 04:52:58;;;;;;;10.77;4.40;;;;;;;;;;5002906;28;20030;-77
2024/01/07 04:55:23;;;;;;;8.38;3.92;;;;;;;;;;5018315;28;20109;-75
2024/01/07 04:57:49;;;;;;;9.90;4.15;;;;;;;;;;5014400;28;20112;-76
2024/01/07 05:00:14;;;;;;;10.63;3.85;;;;;;;;;;5017952;28;20398;-76
2024/01/07 05:02:39;;;;;;;9.80;3.53;;;;;;;;;;5018610;28;20033;-76
2024/01/07 05:05:05;;;;;;;8.23;3.92;;;;;;;;;;5017917;28;20096;-76
2024/01/07 05:07:30;;;;;;;10.53;3.90;;;;;;;;;;5022235;28;20041;-76
2024/01/07 05:09:55;;;;;;;6.85;3.20;;;;;;;;;;5017246;28;20111;-77
2024/01/07 05:12:21;;;;;;;10.85;4.78;;;;;;;;;;5016376;28;20486;-77
2024/01/07 05:14:46;;;;;;;8.13;3.40;;;;;;;;;;5016468;28;20489;-76
2024/01/07 05:17:12;;;;;;;8.98;3.92;;;;;;;;;;5016851;28;20105;-76
2024/01/07 05:19:39;;;;;;;8.30;3.50;;;;;;;;;;5020727;28;20375;-76
2024/01/07 05:22:04;;;;;;;10.07;4.37;;;;;;;;;;5019105;28;20436;-77
2024/01/07 05:24:30;;;;;;;8.67;3.73;;;;;;;;;;5019641;28;20038;-76
2024/01/07 05:26:55;;;;;;;9.10;3.97;;;;;;;;;;5018028;28;20055;-77
2024/01/07 05:29:20;;;;;;;8.93;4.00;;;;;;;;;;5017304;28;20080;-76
2024/01/07 05:31:45;;;;;;;9.23;4.30;;;;;;;;;;5019060;28;20494;-77
2024/01/07 05:34:11;;;;;;;7.03;4.23;;;;;;;;;;5018147;28;20030;-77
2024/01/07 05:36:36;;;;;;;7.97;3.70;;;;;;;;;;5018380;28;20062;-77
2024/01/07 05:39:02;;;;;;;8.38;3.63;;;;;;;;;;5001556;28;20037;-77
2024/01/07 05:41:27;;;;;;;7.50;3.57;;;;;;;;;;5001440;28;20026;-76
2024/01/07 05:43:52;;;;;;;7.95;3.60;;;;;;;;;;5019322;28;20387;-76
2024/01/07 05:46:17;;;;;;;7.73;3.30;;;;;;;;;;5016854;28;20033;-77
2024/01/07 05:48:44;;;;;;;7.13;3.28;;;;;;;;;;5021622;28;20033;-76
2024/01/07 05:51:09;;;;;;;7.97;3.40;;;;;;;;;;5019124;28;20096;-76
2024/01/07 05:53:34;;;;;;;9.67;3.43;;;;;;;;;;4995178;28;20486;-75
2024/01/07 05:56:00;;;;;;;6.57;3.43;;;;;;;;;;5017480;28;20048;-76
2024/01/07 05:58:25;;;;;;;8.17;4.00;;;;;;;;;;5021695;28;20022;-79
2024/01/07 06:00:50;;;;;;;7.82;3.65;;;;;;;;;;5016357;28;20036;-78
2024/01/07 06:03:15;;;;;;;9.98;3.65;;;;;;;;;;5003977;28;20597;-79
2024/01/07 06:05:40;;;;;;;7.75;3.13;;;;;;;;;;5021747;28;20026;-78
2024/01/07 06:08:06;;;;;;;7.47;3.17;;;;;;;;;;5017221;28;20232;-79
2024/01/07 06:10:31;;;;;;;7.70;3.00;;;;;;;;;;5018370;28;20168;-79
2024/01/07 06:12:56;;;;;;;7.20;3.63;;;;;;;;;;5000930;28;20061;-79
2024/01/07 06:15:21;;;;;;;6.27;2.90;;;;;;;;;;5010583;28;20115;-79
2024/01/07 06:17:48;;;;;;;7.63;2.90;;;;;;;;;;5003636;28;20106;-77
2024/01/07 06:20:14;;;;;;;7.07;3.23;;;;;;;;;;5016870;28;20518;-79
2024/01/07 06:22:39;;;;;;;6.00;2.37;;;;;;;;;;5020454;28;20096;-77
2024/01/07 06:25:04;;;;;;;8.03;2.87;;;;;;;;;;5016096;28;20030;-78
2024/01/07 06:27:29;;;;;;;7.53;3.53;;;;;;;;;;5019420;28;20517;-79
2024/01/07 06:29:54;;;;;;;6.40;2.83;;;;;;;;;;5022378;28;20029;-78
2024/01/07 06:32:20;;;;;;;6.97;3.07;;;;;;;;;;5021549;28;20057;-78
2024/01/07 06:34:46;;;;;;;7.00;2.47;;;;;;;;;;5016896;28;20092;-78
2024/01/07 06:37:11;;;;;;;6.73;2.37;;;;;;;;;;4999185;28;20029;-77
2024/01/07 06:39:37;;;;;;;6.67;2.40;;;;;;;;;;5020103;28;20060;-78
2024/01/07 06:42:03;;;;;;;6.00;2.47;;;;;;;;;;5001003;28;20510;-79
2024/01/07 06:44:28;;;;;;;6.83;2.80;;;;;;;;;;5022384;28;20455;-78
2024/01/07 06:46:53;;;;;;;5.17;2.20;;;;;;;;;;5020524;28;20034;-77
2024/01/07 06:49:18;;;;;;;4.20;1.93;;;;;;;;;;5016413;28;20040;-79
2024/01/07 06:51:43;;;;;;;5.63;2.40;;;;;;;;;;5005476;28;20482;-78
2024/01/07 06:54:09;;;;;;;5.80;2.40;;;;;;;;;;5018004;28;20025;-79
2024/01/07 06:56:34;;;;;;;4.83;1.80;;;;;;;;;;5022098;28;20030;-79
2024/01/07 06:58:59;;;;;;;4.83;2.20;;;;;;;;;;5009650;28;20490;-78
2024/01/07 07:01:25;;;;;;;3.90;1.90;;;;;;;;;;4981966;28;20036;-78
2024/01/07 07:03:50;;;;;;;4.90;2.10;;;;;;;;;;5016151;28;20089;-79
2024/01/07 07:06:16;;;;;;;4.97;1.90;;;;;;;;;;5017345;28;20034;-78
2024/01/07 07:08:41;;;;;;;4.00;1.73;;;;;;;;;;5020096;28;20563;-77
2024/01/07 07:11:06;;;;;;;3.80;1.50;;;;;;;;;;5007181;28;20033;-78
2024/01/07 07:13:31;;;;;;;3.13;1.30;;;;;;;;;;5022360;28;20034;-79
2024/01/07 07:15:57;;;;;;;4.63;1.47;;;;;;;;;;5000427;28;20036;-79
2024/01/07 07:18:22;;;;;;;4.40;1.80;;;;;;;;;;5023471;28;20087;-78
2024/01/07 07:20:47;;;;;;;5.13;1.87;;;;;;;;;;5022790;28;20030;-81
2024/01/07 07:23:13;;;;;;;5.50;1.67;;;;;;;;;;4993893;28;20030;-79
2024/01/07 07:25:39;;;;;;;4.17;1.80;;;;;;;;;;5017261;28;20025;-79
2024/01/07 07:28:04;;;;;;;4.47;1.93;;;;;;;;;;5005900;28;20582;-78
2024/01/07 07:30:29;;;;;;;5.33;1.73;;;;;;;;;;5018482;28;20410;-78
2024/01/07 07:32:55;;;;;;;5.33;2.13;;;;;;;;;;5019496;28;20026;-78
2024/01/07 07:35:20;;;;;;;5.83;2.23;;;;;;;;;;5018194;28;20555;-77
2024/01/07 07:37:46;;;;;;;5.13;2.23;;;;;;;;;;5023272;28;20036;-78
2024/01/07 07:40:12;;;;;;;4.87;1.90;;;;;;;;;;5016622;28;20040;-78
2024/01/07 07:42:38;;;;;;;4.13;1.70;;;;;;;;;;5018461;28;20532;-77
2024/01/07 07:45:03;;;;;;;5.07;1.83;;;;;;;;;;5021499;28;20038;-78
2024/01/07 07:47:29;;;;;;;4.63;1.93;;;;;;;;;;5002059;28;20037;-78
2024/01/07 07:49:54;;;;;;;4.27;1.80;;;;;;;;;;5007678;28;20437;-78
2024/01/07 07:52:23;;;;;;;5.73;2.37;;;;;;;;;;4988201;28;20034;-78
2024/01/07 07:54:49;;;;;;;5.03;1.60;;;;;;;;;;5024321;28;20056;-78
2024/01/07 07:57:14;;;;;;;4.50;1.63;;;;;;;;;;5024073;28;20022;-77
2024/01/07 07:59:39;;;;;;;6.97;1.90;;;;;;;;;;5021495;28;20513;-78
2024/01/07 08:02:05;;;;;;;4.73;1.97;;;;;;;;;;5019523;28;20054;-79
2024/01/07 08:04:30;;;;;;;5.17;1.93;;;;;;;;;;5023614;28;20049;-77
2024/01/07 08:06:56;;;;;;;4.87;1.97;;;;;;;;;;5022615;28;20034;-78
2024/01/07 08:09:21;;;;;;;5.93;2.03;;;;;;;;;;5024805;28;20026;-78
2024/01/07 08:11:46;;;;;;;6.40;2.07;;;;;;;;;;5019799;28;20038;-77
2024/01/07 08:14:12;;;;;;;4.60;1.90;;;;;;;;;;5015326;28;20121;-78
2024/01/07 08:16:37;;;;;;;3.10;1.40;;;;;;;;;;5021578;28;20061;-78
2024/01/07 08:19:03;;;;;;;4.23;1.50;;;;;;;;;;5026565;28;20040;-77
2024/01/07 08:21:28;;;;;;;2.83;1.20;;;;;;;;;;5023909;28;20030;-79
2024/01/07 08:23:53;;;;;;;3.63;1.67;;;;;;;;;;5019279;28;20033;-75
2024/01/07 08:26:19;;;;;;;3.90;1.80;;;;;;;;;;5013123;28;20040;-77
2024/01/07 08:28:44;;;;;;;4.77;2.00;;;;;;;;;;5023189;28;20041;-77
2024/01/07 08:31:10;;;;;;;3.87;1.43;;;;;;;;;;5012242;28;20049;-78
2024/01/07 08:33:35;;;;;;;3.27;1.30;;;;;;;;;;5024234;28;20029;-78
2024/01/07 08:36:00;;;;;;;4.63;1.90;;;;;;;;;;4991110;28;20045;-78
2024/01/07 08:38:25;;;;;;;4.63;1.57;;;;;;;;;;5018490;28;20537;-78
2024/01/07 08:40:51;;;;;;;3.53;1.33;;;;;;;;;;5023499;28;20034;-78
2024/01/07 08:43:16;;;;;;;3.70;1.40;;;;;;;;;;5020211;28;20101;-78
2024/01/07 08:45:41;;;;;;;4.17;1.50;;;;;;;;;;5021451;28;20121;-78
2024/01/07 08:48:07;;;;;;;4.50;1.70;;;;;;;;;;5019553;28;20092;-78
2024/01/07 08:50:32;;;;;;;4.43;1.50;;;;;;;;;;5023635;28;20763;-78
2024/01/07 08:52:57;;;;;;;3.00;1.33;;;;;;;;;;5014292;28;20045;-77
2024/01/07 08:55:22;;;;;;;5.33;1.90;;;;;;;;;;5007102;28;20052;-78
2024/01/07 08:57:48;;;;;;;3.63;1.50;;;;;;;;;;5020701;28;20029;-79
2024/01/07 09:00:14;;;;;;;4.67;1.60;;;;;;;;;;5024837;28;20026;-78
2024/01/07 09:02:40;;;;;;;4.00;1.57;;;;;;;;;;5023986;28;20037;-78
2024/01/07 09:05:05;;;;;;;4.20;1.60;;;;;;;;;;5022162;28;20026;-78
2024/01/07 09:07:32;;;;;;;5.03;1.40;;;;;;;;;;5022707;28;20054;-78
2024/01/07 09:09:59;;;;;;;4.07;1.60;;;;;;;;;;5021711;28;20380;-77
2024/01/07 09:12:24;;;;;;;3.40;1.40;;;;;;;;;;5017564;28;20044;-78
2024/01/07 09:14:50;;;;;;;3.93;1.50;;;;;;;;;;5022815;28;20052;-77
2024/01/07 09:17:17;;;;;;;4.20;1.73;;;;;;;;;;5021740;28;20018;-77
2024/01/07 09:19:42;;;;;;;4.20;1.63;;;;;;;;;;4997651;28;20508;-78
2024/01/07 09:22:07;;;;;;;3.67;1.83;;;;;;;;;;5015074;28;20041;-77
2024/01/07 09:24:32;;;;;;;3.63;1.40;;;;;;;;;;5024962;28;20037;-78
2024/01/07 09:26:57;;;;;;;3.57;1.60;;;;;;;;;;5018368;28;20068;-78
2024/01/07 09:29:23;;;;;;;3.90;1.40;;;;;;;;;;5017729;28;20498;-78
2024/01/07 09:31:48;;;;;;;5.53;1.60;;;;;;;;;;5023129;28;20040;-77
2024/01/07 09:34:14;;;;;;;3.80;1.83;;;;;;;;;;5021436;28;20022;-77
2024/01/07 09:36:39;;;;;;;4.10;1.57;;;;;;;;;;5002648;28;20567;-78
2024/01/07 09:39:06;;;;;;;4.00;1.50;;;;;;;;;;5020659;28;20026;-78
2024/01/07 09:41:31;;;;;;;4.23;1.83;;;;;;;;;;5003099;28;20033;-78
2024/01/07 09:43:58;;;;;;;4.97;1.87;;;;;;;;;;5021152;28;20042;-78
2024/01/07 09:46:24;;;;;;;3.93;1.40;;;;;;;;;;5022150;28;20491;-77
2024/01/07 09:48:49;;;;;;;3.30;1.30;;;;;;;;;;5016148;28;20095;-78
2024/01/07 09:51:15;;;;;;;4.23;1.60;;;;;;;;;;5020895;28;20045;-77
2024/01/07 09:53:42;;;;;;;3.60;1.87;;;;;;;;;;5019945;28;20041;-77
2024/01/07 09:56:07;;;;;;;3.40;1.40;;;;;;;;;;5018158;28;20034;-77
2024/01/07 09:58:32;;;;;;;3.40;1.77;;;;;;;;;;5021168;28;20036;-77
2024/01/07 10:00:59;;;;;;;3.87;1.70;;;;;;;;;;5019055;28;20759;-77
2024/01/07 10:03:24;;;;;;;4.60;1.60;;;;;;;;;;5012024;28;20037;-77
2024/01/07 10:05:49;;;;;;;4.07;1.80;;;;;;;;;;5017243;28;20033;-77
2024/01/07 10:08:14;;;;;;;5.77;1.73;;;;;;;;;;5017735;28;20088;-77
2024/01/07 10:10:40;;;;;;;3.77;1.70;;;;;;;;;;5017255;28;20022;-77
2024/01/07 10:13:06;;;;;;;4.67;2.37;;;;;;;;;;5014810;28;20034;-77
2024/01/07 10:15:31;;;;;;;3.83;1.67;;;;;;;;;;5017346;28;20113;-77
2024/01/07 10:18:02;;;;;;;5.63;1.83;;;;;;;;;;4996022;28;20029;-78
2024/01/07 10:20:28;;;;;;;4.13;1.67;;;;;;;;;;5017609;28;20518;-77
2024/01/07 10:22:53;;;;;;;5.77;1.60;;;;;;;;;;4994695;28;20030;-77
2024/01/07 10:25:18;;;;;;;4.67;1.77;;;;;;;;;;5017513;28;20038;-77
2024/01/07 10:27:44;;;;;;;5.30;1.77;;;;;;;;;;4996520;28;20057;-78
2024/01/07 10:30:09;;;;;;;3.23;1.43;;;;;;;;;;5003002;28;20601;-78
2024/01/07 10:32:37;;;;;;;4.37;1.60;;;;;;;;;;4989494;28;20088;-78
2024/01/07 10:35:03;;;;;;;4.07;1.93;;;;;;;;;;5016196;28;20519;-78
2024/01/07 10:37:28;;;;;;;5.77;1.90;;;;;;;;;;5011798;28;20022;-78
2024/01/07 10:39:56;;;;;;;4.97;1.77;;;;;;;;;;4993795;28;20502;-78
2024/01/07 10:42:22;;;;;;;3.40;1.63;;;;;;;;;;5002112;28;20037;-78
2024/01/07 10:44:47;;;;;;;4.60;1.50;;;;;;;;;;5019306;28;20041;-78
2024/01/07 10:47:13;;;;;;;4.67;2.03;;;;;;;;;;5017362;28;20037;-77
2024/01/07 10:49:39;;;;;;;4.10;2.20;;;;;;;;;;5018957;28;20040;-77
2024/01/07 10:52:06;;;;;;;5.97;1.60;;;;;;;;;;5018289;28;20398;-77
2024/01/07 10:54:33;;;;;;;3.83;1.90;;;;;;;;;;5018424;28;20026;-77
2024/01/07 10:56:59;;;;;;;4.30;1.77;;;;;;;;;;5017159;28;20030;-78
2024/01/07 10:59:26;;;;;;;3.30;1.50;;;;;;;;;;5018556;28;20080;-77
2024/01/07 11:01:51;;;;;;;2.90;1.40;;;;;;;;;;5015721;28;20510;-77
2024/01/07 11:04:22;;;;;;;3.73;1.80;;;;;;;;;;5017881;28;20037;-78
2024/01/07 11:07:00;;;;;;;3.80;1.40;;;;;;;;;;5021619;28;20045;-78
2024/01/07 11:09:25;;;;;;;3.80;1.40;;;;;;;;;;5019123;28;20084;-78
2024/01/07 11:11:51;;;;;;;3.93;1.70;;;;;;;;;;5022682;28;20029;-78
2024/01/07 11:14:33;;;;;;;3.40;1.50;;;;;;;;;;5020363;28;20506;-78
2024/01/07 11:16:59;;;;;;;;;;;;;;;;;;5023990;28;20034;-78
2024/01/07 11:19:24;;;;;;;4.68;2.02;;;;;;;;;;5025057;28;19974;-78
2024/01/07 11:21:49;;;;;;;4.50;1.70;;;;;;;;;;5027158;28;20037;-78
2024/01/07 11:24:34;;;;;;;4.80;1.53;;;;;;;;;;5019529;28;20044;-78
2024/01/07 11:27:01;;;;;;;4.70;1.70;;;;;;;;;;5024042;28;20050;-78
2024/01/07 11:29:26;;;;;;;4.37;1.47;;;;;;;;;;5020746;28;20033;-77
2024/01/07 11:31:53;;;;;;;3.07;1.20;;;;;;;;;;5024273;28;20044;-79
2024/01/07 11:34:37;;;;;;;3.97;1.50;;;;;;;;;;5025178;28;20069;-81
2024/01/07 11:37:03;;;;;;;5.50;1.43;;;;;;;;;;4990029;28;20491;-78
2024/01/07 11:39:28;;;;;;;3.87;1.57;;;;;;;;;;5007819;28;20029;-78
2024/01/07 11:41:54;;;;;;;4.30;1.55;;;;;;;;;;5024540;28;20025;-78
2024/01/07 11:44:19;;;;;;;4.00;1.40;;;;;;;;;;5019058;28;20022;-75
2024/01/07 11:46:46;;;;;;;3.70;1.27;;;;;;;;;;5021194;28;20540;-76
2024/01/07 11:49:12;;;;;;;3.30;1.27;;;;;;;;;;5020913;28;20033;-75
2024/01/07 11:51:37;;;;;;;4.93;1.40;;;;;;;;;;5022904;28;20117;-75
2024/01/07 11:54:02;;;;;;;3.47;1.30;;;;;;;;;;5018171;28;20054;-75
2024/01/07 11:56:28;;;;;;;4.03;1.50;;;;;;;;;;5021427;28;20033;-75
2024/01/07 11:58:53;;;;;;;4.70;1.30;;;;;;;;;;5022064;28;20022;-76
2024/01/07 12:01:19;;;;;;;2.88;1.17;;;;;;;;;;5024752;28;20486;-76
2024/01/07 12:03:44;;;;;;;3.50;1.40;;;;;;;;;;5020770;28;20037;-76
2024/01/07 12:06:13;;;;;;;2.57;1.10;;;;;;;;;;5021786;28;20112;-76
2024/01/07 12:08:42;;;;;;;3.25;1.25;;;;;;;;;;5017267;28;20044;-76
2024/01/07 12:11:08;;;;;;;3.30;1.52;;;;;;;;;;5016166;28;20026;-75
2024/01/07 12:13:34;;;;;;;4.85;1.05;;;;;;;;;;5022725;28;20452;-76
2024/01/07 12:16:00;;;;;;;2.80;1.00;;;;;;;;;;5002791;28;20094;-76
2024/01/07 12:18:26;;;;;;;4.65;1.27;;;;;;;;;;5020999;28;20091;-76
2024/01/07 12:20:55;;;;;;;3.65;1.30;;;;;;;;;;5023370;28;20026;-76
2024/01/07 12:23:20;;;;;;;2.30;1.10;;;;;;;;;;5017626;28;20169;-76
2024/01/07 12:25:45;;;;;;;3.60;1.10;;;;;;;;;;5017865;28;20104;-76
2024/01/07 12:28:10;;;;;;;2.97;1.20;;;;;;;;;;5018528;28;20402;-76
2024/01/07 12:30:36;;;;;;;4.10;1.50;;;;;;;;;;5024106;28;20030;-76
2024/01/07 12:33:04;;;;;;;3.50;1.48;;;;;;;;;;5021657;28;20033;-76
2024/01/07 12:35:30;;;;;;;2.28;1.00;;;;;;;;;;5017639;28;20390;-75
2024/01/07 12:37:56;;;;;;;2.05;0.90;;;;;;;;;;5015881;28;20066;-76
2024/01/07 12:40:21;;;;;;;2.83;1.13;;;;;;;;;;5018486;28;20386;-76
2024/01/07 12:42:47;;;;;;;2.35;1.15;;;;;;;;;;5003050;28;20104;-75
2024/01/07 12:45:16;;;;;;;3.13;1.17;;;;;;;;;;5019235;28;20080;-76
2024/01/07 12:47:45;;;;;;;3.15;1.02;;;;;;;;;;5005983;28;20065;-76
2024/01/07 12:50:11;;;;;;;2.22;1.00;;;;;;;;;;5020448;28;20088;-76
2024/01/07 12:52:37;;;;;;;4.18;1.27;;;;;;;;;;5013802;28;20030;-76
2024/01/07 12:55:02;;;;;;;1.98;0.90;;;;;;;;;;5018100;28;20025;-76
2024/01/07 12:57:28;;;;;;;2.50;0.98;;;;;;;;;;5017507;28;20454;-76
2024/01/07 12:59:53;;;;;;;2.97;1.10;;;;;;;;;;5021728;28;20018;-75
2024/01/07 13:02:18;;;;;;;4.82;1.25;;;;;;;;;;4999462;28;20030;-76
2024/01/07 13:04:43;;;;;;;3.50;1.25;;;;;;;;;;5017246;28;20026;-76
2024/01/07 13:07:09;;;;;;;2.75;0.85;;;;;;;;;;4999291;28;20033;-76
2024/01/07 13:09:34;;;;;;;4.32;1.17;;;;;;;;;;5021476;28;20030;-76
2024/01/07 13:11:59;;;;;;;3.00;0.80;;;;;;;;;;5009019;28;20037;-76
2024/01/07 13:14:24;;;;;;;4.28;1.65;;;;;;;;;;5007858;28;20394;-76
2024/01/07 13:16:50;;;;;;;2.42;0.90;;;;;;;;;;5022538;28;20413;-76
2024/01/07 13:19:15;;;;;;;2.75;1.35;;;;;;;;;;5014477;28;20148;-76
2024/01/07 13:21:40;;;;;;;2.00;0.85;;;;;;;;;;5022529;28;20402;-76
2024/01/07 13:24:05;;;;;;;3.42;0.90;;;;;;;;;;5016039;28;20483;-78
2024/01/07 13:26:31;;;;;;;3.05;1.10;;;;;;;;;;5019486;28;20063;-76
2024/01/07 13:28:56;;;;;;;3.85;1.75;;;;;;;;;;5021413;28;20037;-77
2024/01/07 13:31:21;;;;;;;2.80;1.00;;;;;;;;;;5014312;28;20044;-77
2024/01/07 13:33:46;;;;;;;2.97;1.33;;;;;;;;;;5017167;28;20037;-77
2024/01/07 13:36:13;;;;;;;2.92;1.50;;;;;;;;;;5020509;28;20030;-77
2024/01/07 13:38:41;;;;;;;2.33;1.10;;;;;;;;;;5021602;28;20363;-77
2024/01/07 13:41:10;;;;;;;3.00;1.10;;;;;;;;;;5003267;28;20099;-77
2024/01/07 13:43:37;;;;;;;2.90;1.17;;;;;;;;;;5019393;28;20117;-77
2024/01/07 13:46:02;;;;;;;2.90;1.17;;;;;;;;;;5017282;28;20549;-77
2024/01/07 13:48:28;;;;;;;3.47;1.67;;;;;;;;;;4992694;28;20037;-77
2024/01/07 13:50:54;;;;;;;3.20;1.27;;;;;;;;;;5020834;28;20054;-77
2024/01/07 13:53:19;;;;;;;3.90;1.30;;;;;;;;;;5019269;28;20076;-77
2024/01/07 13:55:46;;;;;;;3.13;1.30;;;;;;;;;;5002767;28;20037;-77
2024/01/07 13:58:11;;;;;;;3.20;1.40;;;;;;;;;;5015541;28;20025;-77
2024/01/07 14:00:36;;;;;;;2.67;1.07;;;;;;;;;;5022454;28;20080;-77
2024/01/07 14:03:02;;;;;;;3.40;1.30;;;;;;;;;;5015053;28;20088;-76
2024/01/07 14:05:27;;;;;;;3.43;1.50;;;;;;;;;;5002161;28;20046;-77
2024/01/07 14:07:52;;;;;;;4.47;1.50;;;;;;;;;;5014975;28;20102;-77
2024/01/07 14:10:19;;;;;;;3.80;1.33;;;;;;;;;;5006240;28;20401;-76
2024/01/07 14:12:44;;;;;;;2.60;1.20;;;;;;;;;;5015258;28;20100;-77
2024/01/07 14:15:10;;;;;;;3.60;1.92;;;;;;;;;;5016550;28;20041;-77
2024/01/07 14:17:35;;;;;;;3.93;1.60;;;;;;;;;;5016742;28;20064;-75
2024/01/07 14:20:00;;;;;;;3.57;1.40;;;;;;;;;;5012007;28;20045;-77
2024/01/07 14:22:25;;;;;;;4.90;2.10;;;;;;;;;;5000965;28;20036;-75
2024/01/07 14:24:51;;;;;;;3.40;1.57;;;;;;;;;;5013569;28;20072;-76
2024/01/07 14:27:16;;;;;;;2.50;1.10;;;;;;;;;;5015612;28;20038;-76
2024/01/07 14:29:42;;;;;;;4.73;1.77;;;;;;;;;;4999205;28;20489;-76